Impacts TAF Board INFO
FOR SITUATIONAL AWARENESS. NOT TO BE USED FOR FLIGHT PLANNING PURPOSES.
IDs:

KEWR - Newark Intl, NJ, US

Issued at 1137 UTC 22 Nov 2017
Updated at 1306 UTC 22 Nov 2017
Potential Impact None Slight Moderate High
Time1251Z 22/14Z 22/15Z 22/16Z 22/17Z 22/18Z 22/19Z 22/20Z 22/21Z 22/22Z 22/23Z 23/00Z 23/01Z 23/02Z>>
Type OBS PRVL
  [TEMP]  
PRVL
  [TEMP]  
PRVL PRVL PRVL PRVL PRVL PRVL PRVL PRVL PRVL PRVL PRVL
VIS 7 6
  [3]  
6
  [3]  
>6 >6 >6 >6 >6 >6 >6 >6 >6 >6 >6
CIG 16 25
  [15]  
25
  [15]  
70 70 -- -- -- -- -- -- -- -- --
Cover OVC OVC
  [BKN]  
OVC
  [BKN]  
BKN BKN SCT SCT SCT SCT SCT SCT SCT SCT SCT
FltCat MVFR MVFR
  [MVFR]  
MVFR
  [MVFR]  
VFR VFR VFR VFR VFR VFR VFR VFR VFR VFR VFR
WX -RA -RA BR
  [-RA BR]  
-RA BR
  [-RA BR]  
-- -- -- -- -- -- -- -- -- -- --
WDir 260 VRB
[VRB]
VRB
[VRB]
320 320 320 320 320 320 320 320 320 320 320
WSpd 5 5
  [5]  
5
  [5]  
10 10 17 17 17 17 17 17 17 17 17
WGst -- --
  [--]  
--
  [--]  
-- -- 25 25 25 25 25 25 25 25 25

Raw TAF
KEWR 221137Z 2212/2318 VRB05KT 6SM -RA BR BKN025 OVC050
  TEMPO 2212/2216 3SM -RA BR BKN015
  FM221600 32010KT P6SM SCT025 BKN070
  FM221800 32017G25KT P6SM FEW070 SCT250
  FM230300 32012KT P6SM SKC
  FM230700 32008KT P6SM SKC


Raw METAR
KEWR 221251Z 26005KT 7SM -RA BKN016 OVC060 11/09 A2991 RMK AO2 SLP128 P0005 T01060089 $
KEWR 221151Z 00000KT 8SM -RA BKN016 OVC032 11/07 A2991 RMK AO2 RAB26 SLP127 P0003 60003 70003 T01060072 10111 20072 55014 $
KEWR 221051Z 36004KT 10SM BKN022 OVC040 09/06 A2990 RMK AO2 RAE0957 SLP125 P0000 T00940056 $
KEWR 221034Z 02003KT 10SM BKN022 BKN040 OVC090 10/06 A2991 RMK AO2 RAE0957 P0000 T01000061 $

METAR Board
Radar Display
Forecast Discussion

FOR SITUATIONAL AWARENESS. NOT TO BE USED FOR FLIGHT PLANNING PURPOSES.